createdAt,value
2023-05-10T00:00:20.059Z,23.97
2023-05-10T00:01:20.081Z,23.98
2023-05-10T00:02:20.118Z,23.96
2023-05-10T00:03:20.205Z,23.96
2023-05-10T00:04:20.186Z,23.97
2023-05-10T00:05:20.171Z,23.96
2023-05-10T00:06:20.148Z,23.96
2023-05-10T00:07:20.149Z,23.97
2023-05-10T00:08:20.192Z,23.96
2023-05-10T00:09:20.214Z,23.96
2023-05-10T00:10:20.234Z,23.96
2023-05-10T00:11:22.270Z,23.96
2023-05-10T00:12:20.218Z,23.96
2023-05-10T00:13:20.242Z,23.95
2023-05-10T00:14:20.175Z,23.95
2023-05-10T00:15:20.186Z,23.95
2023-05-10T00:16:20.283Z,23.95
2023-05-10T00:17:20.179Z,23.94
2023-05-10T00:18:20.206Z,23.94
2023-05-10T00:19:20.148Z,23.95
2023-05-10T00:20:20.138Z,23.94
2023-05-10T00:21:20.136Z,23.95
2023-05-10T00:22:20.151Z,23.94
2023-05-10T00:23:20.126Z,23.95
2023-05-10T00:24:20.140Z,23.94
2023-05-10T00:25:20.132Z,23.94
2023-05-10T00:26:20.117Z,23.94
2023-05-10T00:27:20.130Z,23.92
2023-05-10T00:28:20.132Z,23.94
2023-05-10T00:29:20.096Z,23.93
2023-05-10T00:30:20.081Z,23.93
2023-05-10T00:31:20.105Z,23.93
2023-05-10T00:32:20.170Z,23.93
2023-05-10T00:33:20.089Z,23.93
2023-05-10T00:34:20.096Z,23.93
2023-05-10T00:35:20.072Z,23.93
2023-05-10T00:36:20.036Z,23.93
2023-05-10T00:37:20.040Z,23.93
2023-05-10T00:38:20.037Z,23.92
2023-05-10T00:39:20.021Z,23.92
2023-05-10T00:40:20.039Z,23.92
2023-05-10T00:41:20.058Z,23.91
2023-05-10T00:42:20.006Z,23.91
2023-05-10T00:43:19.996Z,23.92
2023-05-10T00:44:19.987Z,23.91
2023-05-10T00:45:19.979Z,23.92
2023-05-10T00:46:20.067Z,23.92
2023-05-10T00:47:19.991Z,23.91
2023-05-10T00:48:19.979Z,23.91
2023-05-10T00:49:19.959Z,23.91
2023-05-10T00:50:19.974Z,23.91
2023-05-10T00:51:19.965Z,23.90
2023-05-10T00:52:19.931Z,23.90
2023-05-10T00:53:19.954Z,23.90
2023-05-10T00:54:19.945Z,23.90
2023-05-10T00:55:19.923Z,23.90
2023-05-10T00:56:19.922Z,23.89
2023-05-10T00:57:19.917Z,23.90
2023-05-10T00:58:19.895Z,23.89
2023-05-10T00:59:19.923Z,23.89
2023-05-10T01:00:19.875Z,23.89
2023-05-10T01:01:19.921Z,23.89
2023-05-10T01:02:19.945Z,23.89
2023-05-10T01:03:20.100Z,23.88
2023-05-10T01:04:19.847Z,23.89
2023-05-10T01:05:19.887Z,23.89
2023-05-10T01:06:19.857Z,23.88
2023-05-10T01:07:19.835Z,23.89
2023-05-10T01:08:19.851Z,23.88
2023-05-10T01:09:19.836Z,23.88
2023-05-10T01:10:19.830Z,23.89
2023-05-10T01:11:19.841Z,23.88
2023-05-10T01:12:19.908Z,23.88
2023-05-10T01:13:19.885Z,23.88
2023-05-10T01:14:19.781Z,23.88
2023-05-10T01:15:19.816Z,23.88
2023-05-10T01:16:19.804Z,23.87
2023-05-10T01:17:19.807Z,23.87
2023-05-10T01:18:19.797Z,23.87
2023-05-10T01:19:19.768Z,23.87
2023-05-10T01:20:19.886Z,23.87
2023-05-10T01:21:19.824Z,23.87
2023-05-10T01:22:19.755Z,23.87
2023-05-10T01:23:19.760Z,23.86
2023-05-10T01:24:19.772Z,23.86
2023-05-10T01:25:19.730Z,23.86
2023-05-10T01:26:19.705Z,23.86
2023-05-10T01:27:19.718Z,23.86
2023-05-10T01:28:19.696Z,23.86
2023-05-10T01:29:19.731Z,23.86
2023-05-10T01:31:19.758Z,23.86
2023-05-10T01:32:19.663Z,23.85
2023-05-10T01:33:19.684Z,23.85
2023-05-10T01:34:19.679Z,23.85
2023-05-10T01:35:19.663Z,23.85
2023-05-10T01:36:19.651Z,23.83
2023-05-10T01:37:19.631Z,23.84
2023-05-10T01:38:19.623Z,23.84
2023-05-10T01:39:19.643Z,23.83
2023-05-10T01:40:19.628Z,23.84
2023-05-10T01:41:19.700Z,23.83
2023-05-10T01:42:19.626Z,23.83
2023-05-10T01:43:19.612Z,23.83
2023-05-10T01:44:19.585Z,23.83
2023-05-10T01:45:19.597Z,23.83
2023-05-10T01:46:19.658Z,23.83
2023-05-10T01:47:19.578Z,23.83
2023-05-10T01:48:19.588Z,23.83
2023-05-10T01:49:19.569Z,23.83
2023-05-10T01:50:19.669Z,23.83
2023-05-10T01:51:19.560Z,23.83
2023-05-10T01:52:19.527Z,23.83
2023-05-10T01:53:19.519Z,23.83
2023-05-10T01:54:19.549Z,23.82
2023-05-10T01:55:19.576Z,23.82
2023-05-10T01:56:19.526Z,23.81
2023-05-10T01:57:19.497Z,23.82
2023-05-10T01:58:19.521Z,23.83
2023-05-10T01:59:19.536Z,23.82
2023-05-10T02:00:19.490Z,23.82
2023-05-10T02:01:19.547Z,23.81
2023-05-10T02:02:19.483Z,23.81
2023-05-10T02:03:19.516Z,23.80
2023-05-10T02:04:19.492Z,23.81
2023-05-10T02:05:19.445Z,23.81
2023-05-10T02:06:19.449Z,23.81
2023-05-10T02:07:19.459Z,23.81
2023-05-10T02:08:19.431Z,23.81
2023-05-10T02:09:19.419Z,23.80
2023-05-10T02:10:19.524Z,23.80
2023-05-10T02:11:19.407Z,23.80
2023-05-10T02:12:19.400Z,23.80
2023-05-10T02:13:19.456Z,23.80
2023-05-10T02:14:19.393Z,23.79
2023-05-10T02:15:19.410Z,23.79
2023-05-10T02:16:19.515Z,23.79
2023-05-10T02:17:19.368Z,23.79
2023-05-10T02:18:19.400Z,23.79
2023-05-10T02:19:19.353Z,23.79
2023-05-10T02:20:19.556Z,23.78
2023-05-10T02:21:19.336Z,23.78
2023-05-10T02:22:19.401Z,23.78
2023-05-10T02:23:19.318Z,23.79
2023-05-10T02:24:19.335Z,23.77
2023-05-10T02:25:19.322Z,23.77
2023-05-10T02:26:19.328Z,23.77
2023-05-10T02:27:19.307Z,23.76
2023-05-10T02:28:19.312Z,23.76
2023-05-10T02:29:19.306Z,23.76
2023-05-10T02:30:19.280Z,23.77
2023-05-10T02:31:19.358Z,23.77
2023-05-10T02:32:19.281Z,23.77
2023-05-10T02:33:19.256Z,23.77
2023-05-10T02:34:19.345Z,23.77
2023-05-10T02:35:19.248Z,23.76
2023-05-10T02:36:19.280Z,23.76
2023-05-10T02:37:19.269Z,23.76
2023-05-10T02:38:19.232Z,23.76
2023-05-10T02:39:19.246Z,23.76
2023-05-10T02:40:19.385Z,23.76
2023-05-10T02:41:19.221Z,23.75
2023-05-10T02:42:19.219Z,23.75
2023-05-10T02:43:19.212Z,23.75
2023-05-10T02:44:19.199Z,23.75
2023-05-10T02:45:19.184Z,23.75
2023-05-10T02:46:19.218Z,23.76
2023-05-10T02:47:19.165Z,23.76
2023-05-10T02:48:19.174Z,23.75
2023-05-10T02:49:19.182Z,23.74
2023-05-10T02:50:19.226Z,23.74
2023-05-10T02:51:19.215Z,23.74
2023-05-10T02:52:19.161Z,23.74
2023-05-10T02:53:19.141Z,23.73
2023-05-10T02:54:19.163Z,23.73
2023-05-10T02:55:19.156Z,23.73
2023-05-10T02:56:19.119Z,23.73
2023-05-10T02:57:19.156Z,23.73
2023-05-10T02:58:19.139Z,23.72
2023-05-10T02:59:19.124Z,23.72
2023-05-10T03:00:19.138Z,23.73
2023-05-10T03:01:19.149Z,23.72
2023-05-10T03:02:19.139Z,23.72
2023-05-10T03:03:19.140Z,23.72
2023-05-10T03:04:19.214Z,23.72
2023-05-10T03:05:19.132Z,23.71
2023-05-10T03:06:19.142Z,23.71
2023-05-10T03:07:19.152Z,23.71
2023-05-10T03:08:19.184Z,23.71
2023-05-10T03:09:19.166Z,23.71
2023-05-10T03:10:19.364Z,23.71
2023-05-10T03:11:19.149Z,23.71
2023-05-10T03:12:19.159Z,23.71
2023-05-10T03:13:19.236Z,23.71
2023-05-10T03:14:19.191Z,23.72
2023-05-10T03:15:19.195Z,23.71
2023-05-10T03:16:19.230Z,23.71
2023-05-10T03:17:19.184Z,23.71
2023-05-10T03:18:19.202Z,23.70
2023-05-10T03:19:19.222Z,23.70
2023-05-10T03:20:19.218Z,23.70
2023-05-10T03:21:19.219Z,23.70
2023-05-10T03:22:19.224Z,23.70
2023-05-10T03:23:19.235Z,23.70
2023-05-10T03:24:19.215Z,23.69
2023-05-10T03:25:19.216Z,23.69
2023-05-10T03:26:19.276Z,23.69
2023-05-10T03:27:19.221Z,23.69
2023-05-10T03:28:19.282Z,23.70
2023-05-10T03:29:19.281Z,23.69
2023-05-10T03:30:19.418Z,23.70
2023-05-10T03:31:19.266Z,23.69
2023-05-10T03:32:19.222Z,23.70
2023-05-10T03:33:19.226Z,23.70
2023-05-10T03:34:19.232Z,23.69
2023-05-10T03:35:19.227Z,23.69
2023-05-10T03:36:19.274Z,23.68
2023-05-10T03:37:19.279Z,23.69
2023-05-10T03:38:19.317Z,23.69
2023-05-10T03:39:19.346Z,23.69
2023-05-10T03:40:19.539Z,23.69
2023-05-10T03:41:19.362Z,23.68
2023-05-10T03:42:19.419Z,23.70
2023-05-10T03:43:19.432Z,23.69
2023-05-10T03:44:19.428Z,23.68
2023-05-10T03:45:19.490Z,23.68
2023-05-10T03:46:19.443Z,23.68
2023-05-10T03:47:19.450Z,23.68
2023-05-10T03:48:19.437Z,23.68
2023-05-10T03:49:19.452Z,23.68
2023-05-10T03:50:19.603Z,23.67
2023-05-10T03:51:19.484Z,23.68
2023-05-10T03:52:19.529Z,23.67
2023-05-10T03:53:19.533Z,23.67
2023-05-10T03:54:19.543Z,23.67
2023-05-10T03:55:19.540Z,23.67
2023-05-10T03:56:19.539Z,23.67
2023-05-10T03:57:19.523Z,23.67
2023-05-10T03:58:19.539Z,23.66
2023-05-10T03:59:19.546Z,23.65
2023-05-10T04:00:19.714Z,23.66
2023-05-10T04:01:19.547Z,23.66
2023-05-10T04:02:19.589Z,23.65
2023-05-10T04:03:19.704Z,23.65
2023-05-10T04:04:19.959Z,23.65
2023-05-10T04:05:19.660Z,23.65
2023-05-10T04:06:19.711Z,23.65
2023-05-10T04:07:19.658Z,23.65
2023-05-10T04:08:19.668Z,23.65
2023-05-10T04:09:19.723Z,23.65
2023-05-10T04:10:19.766Z,23.65
2023-05-10T04:11:19.693Z,23.65
2023-05-10T04:12:19.692Z,23.65
2023-05-10T04:13:19.742Z,23.65
2023-05-10T04:14:19.701Z,23.64
2023-05-10T04:15:19.717Z,23.64
2023-05-10T04:16:19.782Z,23.65
2023-05-10T04:17:19.751Z,23.65
2023-05-10T04:18:19.704Z,23.65
2023-05-10T04:19:19.822Z,23.64
2023-05-10T04:20:19.767Z,23.63
2023-05-10T04:21:19.694Z,23.63
2023-05-10T04:22:19.722Z,23.63
2023-05-10T04:23:19.699Z,23.63
2023-05-10T04:24:19.705Z,23.63
2023-05-10T04:25:19.702Z,23.64
2023-05-10T04:26:19.693Z,23.63
2023-05-10T04:27:19.705Z,23.64
2023-05-10T04:28:19.744Z,23.64
2023-05-10T04:29:19.695Z,23.63
2023-05-10T04:30:19.692Z,23.63
2023-05-10T04:31:19.828Z,23.62
2023-05-10T04:32:19.700Z,23.63
2023-05-10T04:33:19.696Z,23.62
2023-05-10T04:34:20.128Z,23.63
2023-05-10T04:35:19.721Z,23.63
2023-05-10T04:36:19.717Z,23.63
2023-05-10T04:37:19.714Z,23.62
2023-05-10T04:38:19.722Z,23.62
2023-05-10T04:39:19.728Z,23.62
2023-05-10T04:40:19.745Z,23.62
2023-05-10T04:41:19.741Z,23.62
2023-05-10T04:42:19.749Z,23.62
2023-05-10T04:43:19.764Z,23.62
2023-05-10T04:44:19.783Z,23.62
2023-05-10T04:45:19.769Z,23.63
2023-05-10T04:46:19.817Z,23.62
2023-05-10T04:47:19.777Z,23.61
2023-05-10T04:48:19.751Z,23.62
2023-05-10T04:49:19.754Z,23.61
2023-05-10T04:50:19.787Z,23.61
2023-05-10T04:51:19.797Z,23.62
2023-05-10T04:52:19.794Z,23.62
2023-05-10T04:53:19.799Z,23.61
2023-05-10T04:54:19.795Z,23.62
2023-05-10T04:55:19.782Z,23.62
2023-05-10T04:56:19.801Z,23.62
2023-05-10T04:57:19.824Z,23.61
2023-05-10T04:58:19.818Z,23.62
2023-05-10T04:59:19.836Z,23.63
2023-05-10T05:00:19.830Z,23.63
2023-05-10T05:01:19.854Z,23.63
2023-05-10T05:02:19.852Z,23.63
2023-05-10T05:03:19.978Z,23.63
2023-05-10T05:04:19.836Z,23.63
2023-05-10T05:05:19.858Z,23.63
2023-05-10T05:06:19.841Z,23.63
2023-05-10T05:07:19.865Z,23.63
2023-05-10T05:08:19.844Z,23.63
2023-05-10T05:09:19.875Z,23.63
2023-05-10T05:10:20.122Z,23.63
2023-05-10T05:11:19.866Z,23.63
2023-05-10T05:12:19.870Z,23.63
2023-05-10T05:13:19.927Z,23.63
2023-05-10T05:14:19.870Z,23.63
2023-05-10T05:15:19.880Z,23.62
2023-05-10T05:16:19.886Z,23.63
2023-05-10T05:17:19.870Z,23.62
2023-05-10T05:18:19.898Z,23.63
2023-05-10T05:19:19.905Z,23.63
2023-05-10T05:20:20.007Z,23.63
2023-05-10T05:21:19.960Z,23.64
2023-05-10T05:22:19.909Z,23.63
2023-05-10T05:23:19.924Z,23.63
2023-05-10T05:24:19.933Z,23.64
2023-05-10T05:25:19.934Z,23.63
2023-05-10T05:26:19.955Z,23.63
2023-05-10T05:27:19.956Z,23.64
2023-05-10T05:28:19.974Z,23.64
2023-05-10T05:29:19.977Z,23.65
2023-05-10T05:30:20.011Z,23.65
2023-05-10T05:31:20.081Z,23.66
2023-05-10T05:32:20.020Z,23.67
2023-05-10T05:33:20.029Z,23.65
2023-05-10T05:34:20.155Z,23.70
2023-05-10T05:35:20.055Z,23.73
2023-05-10T05:36:20.042Z,23.77
2023-05-10T05:37:20.044Z,23.81
2023-05-10T05:38:20.073Z,23.83
2023-05-10T05:39:20.044Z,23.85
2023-05-10T05:40:20.036Z,23.89
2023-05-10T05:41:20.074Z,23.93
2023-05-10T05:42:20.083Z,23.97
2023-05-10T05:43:20.165Z,24.01
2023-05-10T05:44:20.236Z,24.05
2023-05-10T05:45:20.426Z,24.10
2023-05-10T05:46:20.353Z,24.14
2023-05-10T05:47:20.400Z,24.18
2023-05-10T05:48:20.447Z,24.21
2023-05-10T05:49:20.686Z,24.25
2023-05-10T05:50:20.529Z,24.28
2023-05-10T05:51:20.584Z,24.32
2023-05-10T05:52:20.619Z,24.35
2023-05-10T05:53:20.681Z,24.37
2023-05-10T05:54:21.141Z,24.40
2023-05-10T05:55:20.758Z,24.43
2023-05-10T05:56:20.789Z,24.45
2023-05-10T05:57:20.814Z,24.48
2023-05-10T05:58:20.870Z,24.50
2023-05-10T05:59:20.893Z,24.50
2023-05-10T06:00:20.936Z,24.41
2023-05-10T06:01:21.014Z,24.27
2023-05-10T06:02:21.096Z,24.11
2023-05-10T06:03:21.220Z,23.95
2023-05-10T06:04:21.137Z,23.81
2023-05-10T06:05:21.080Z,23.68
2023-05-10T06:06:21.104Z,23.56
2023-05-10T06:07:21.117Z,23.43
2023-05-10T06:08:21.149Z,23.33
2023-05-10T06:09:21.162Z,23.33
2023-05-10T06:10:21.192Z,23.37
2023-05-10T06:11:21.221Z,23.43
2023-05-10T06:12:21.260Z,23.48
2023-05-10T06:13:21.280Z,23.55
2023-05-10T06:14:21.277Z,23.62
2023-05-10T06:15:21.678Z,23.70
2023-05-10T06:16:21.327Z,23.77
2023-05-10T06:17:21.291Z,23.84
2023-05-10T06:18:21.300Z,23.90
2023-05-10T06:19:21.670Z,23.97
2023-05-10T06:20:21.669Z,24.04
2023-05-10T06:21:21.492Z,24.09
2023-05-10T06:22:21.551Z,24.15
2023-05-10T06:23:21.624Z,24.21
2023-05-10T06:24:21.660Z,24.25
2023-05-10T06:25:21.709Z,24.29
2023-05-10T06:26:21.742Z,24.33
2023-05-10T06:27:21.785Z,24.38
2023-05-10T06:28:21.806Z,24.41
2023-05-10T06:29:21.848Z,24.45
2023-05-10T06:30:22.199Z,24.50
2023-05-10T06:31:21.934Z,24.52
2023-05-10T06:32:21.957Z,24.57
2023-05-10T06:33:22.020Z,24.61
2023-05-10T06:34:22.183Z,24.63
2023-05-10T06:35:22.042Z,24.65
2023-05-10T06:36:22.072Z,24.67
2023-05-10T06:37:22.063Z,24.71
2023-05-10T06:38:22.095Z,24.75
2023-05-10T06:39:22.131Z,24.79
2023-05-10T06:40:22.132Z,24.82
2023-05-10T06:41:24.604Z,24.86
2023-05-10T06:42:22.367Z,24.89
2023-05-10T06:43:22.412Z,24.92
2023-05-10T06:44:22.415Z,24.95
2023-05-10T06:45:22.424Z,24.97
2023-05-10T06:46:22.431Z,24.98
2023-05-10T06:47:22.412Z,25.00
2023-05-10T06:48:22.567Z,25.02
2023-05-10T06:49:22.415Z,25.03
2023-05-10T06:50:22.428Z,25.04
2023-05-10T06:51:22.424Z,25.06
2023-05-10T06:52:22.419Z,25.07
2023-05-10T06:53:22.404Z,25.08
2023-05-10T06:54:22.400Z,25.09
2023-05-10T06:55:22.410Z,25.11
2023-05-10T06:56:22.446Z,25.11
2023-05-10T06:57:31.224Z,25.12
2023-05-10T06:58:23.411Z,25.13
2023-05-10T06:59:23.236Z,25.15
2023-05-10T07:00:22.393Z,25.15
2023-05-10T07:01:22.443Z,25.15
2023-05-10T07:02:22.418Z,25.16
2023-05-10T07:03:22.466Z,25.17
2023-05-10T07:04:22.406Z,25.19
2023-05-10T07:05:22.429Z,25.19
2023-05-10T07:06:32.774Z,25.20
2023-05-10T07:07:23.327Z,25.21
2023-05-10T07:08:22.341Z,25.21
2023-05-10T07:09:22.329Z,25.21
2023-05-10T07:10:22.334Z,25.22
2023-05-10T07:11:22.362Z,25.22
2023-05-10T07:12:22.338Z,25.24
2023-05-10T07:13:22.349Z,25.23
2023-05-10T07:14:22.294Z,25.25
2023-05-10T07:15:22.289Z,25.27
2023-05-10T07:16:22.338Z,25.29
2023-05-10T07:17:22.331Z,25.31
2023-05-10T07:18:22.376Z,25.32
2023-05-10T07:19:22.357Z,25.35
2023-05-10T07:20:22.421Z,25.38
2023-05-10T07:21:22.500Z,25.40
2023-05-10T07:22:22.534Z,25.43
2023-05-10T07:23:22.594Z,25.45
2023-05-10T07:24:22.662Z,25.43
2023-05-10T07:25:22.727Z,25.42
2023-05-10T07:26:22.793Z,25.41
2023-05-10T07:27:22.834Z,25.41
2023-05-10T07:28:22.871Z,25.40
2023-05-10T07:29:22.936Z,25.36
2023-05-10T07:30:22.969Z,25.31
2023-05-10T07:31:22.917Z,25.31
2023-05-10T07:32:23.274Z,25.27
2023-05-10T07:33:23.004Z,25.28
2023-05-10T07:34:22.972Z,25.29
2023-05-10T07:35:23.013Z,25.29
2023-05-10T07:36:23.046Z,25.29
2023-05-10T07:37:23.065Z,25.28
2023-05-10T07:38:23.105Z,25.29
2023-05-10T07:39:27.476Z,25.28
2023-05-10T07:40:24.150Z,25.26
2023-05-10T07:41:23.145Z,25.22
2023-05-10T07:42:23.145Z,25.21
2023-05-10T07:43:23.229Z,25.20
2023-05-10T07:44:23.124Z,25.20
2023-05-10T07:45:23.137Z,25.21
2023-05-10T07:46:23.214Z,25.22
2023-05-10T07:47:23.122Z,25.21
2023-05-10T07:48:23.100Z,25.22
2023-05-10T07:49:23.192Z,25.21
2023-05-10T07:50:23.203Z,25.20
2023-05-10T07:51:23.097Z,25.18
2023-05-10T07:52:23.097Z,25.18
2023-05-10T07:53:23.067Z,25.18
2023-05-10T07:54:23.057Z,25.17
2023-05-10T07:55:23.207Z,25.17
2023-05-10T07:56:23.041Z,25.15
2023-05-10T07:57:23.016Z,25.14
2023-05-10T07:58:23.028Z,25.13
2023-05-10T07:59:23.011Z,25.10
2023-05-10T08:00:23.197Z,25.09
2023-05-10T08:01:23.012Z,25.07
2023-05-10T08:02:23.066Z,25.06
2023-05-10T08:03:23.012Z,25.05
2023-05-10T08:04:23.017Z,25.03
2023-05-10T08:05:23.005Z,25.02
2023-05-10T08:06:22.969Z,25.01
2023-05-10T08:07:22.956Z,24.99
2023-05-10T08:08:22.998Z,24.98
2023-05-10T08:09:22.981Z,24.97
2023-05-10T08:10:22.957Z,24.95
2023-05-10T08:11:22.938Z,24.95
2023-05-10T08:12:22.941Z,24.93
2023-05-10T08:13:22.951Z,24.93
2023-05-10T08:14:22.930Z,24.92
2023-05-10T08:15:23.235Z,24.91
2023-05-10T08:16:23.013Z,24.91
2023-05-10T08:17:24.825Z,24.90
2023-05-10T08:18:23.055Z,24.89
2023-05-10T08:19:22.947Z,24.89
2023-05-10T08:20:23.227Z,24.88
2023-05-10T08:21:22.996Z,24.88
2023-05-10T08:22:22.979Z,24.88
2023-05-10T08:23:22.991Z,24.87
2023-05-10T08:24:23.035Z,24.85
2023-05-10T08:25:23.014Z,24.83
2023-05-10T08:26:23.054Z,24.83
2023-05-10T08:27:23.056Z,24.83
2023-05-10T08:28:23.087Z,24.83
2023-05-10T08:29:23.112Z,24.83
2023-05-10T08:30:23.134Z,24.83
2023-05-10T08:31:23.150Z,24.83
2023-05-10T08:32:23.150Z,24.82
2023-05-10T08:33:23.186Z,24.82
2023-05-10T08:34:23.417Z,24.82
2023-05-10T08:35:23.213Z,24.81
2023-05-10T08:36:23.253Z,24.82
2023-05-10T08:37:23.262Z,24.81
2023-05-10T08:38:23.315Z,24.81
2023-05-10T08:39:29.780Z,24.81
2023-05-10T08:40:24.315Z,24.81
2023-05-10T08:41:23.366Z,24.84
2023-05-10T08:42:23.264Z,24.86
2023-05-10T08:43:23.280Z,24.88
2023-05-10T08:44:23.279Z,24.91
2023-05-10T08:45:23.759Z,24.93
2023-05-10T08:46:24.229Z,24.94
2023-05-10T08:47:23.296Z,24.97
2023-05-10T08:48:23.253Z,24.99
2023-05-10T08:49:23.255Z,25.01
2023-05-10T08:50:23.240Z,25.02
2023-05-10T08:51:23.230Z,25.04
2023-05-10T08:52:23.224Z,25.05
2023-05-10T08:53:23.228Z,25.07
2023-05-10T08:54:23.237Z,25.08
2023-05-10T08:55:23.232Z,25.09
2023-05-10T08:56:23.218Z,25.10
2023-05-10T08:57:23.185Z,25.11
2023-05-10T08:58:23.220Z,25.12
2023-05-10T08:59:23.186Z,25.13
2023-05-10T09:00:23.181Z,25.14
2023-05-10T09:01:23.319Z,25.15
2023-05-10T09:02:23.174Z,25.17
2023-05-10T09:03:23.239Z,25.19
2023-05-10T09:04:23.198Z,25.20
2023-05-10T09:05:23.184Z,25.22
2023-05-10T09:06:23.140Z,25.23
2023-05-10T09:07:23.137Z,25.22
2023-05-10T09:08:23.128Z,25.23
2023-05-10T09:09:23.110Z,25.24
2023-05-10T09:10:23.228Z,25.26
2023-05-10T09:11:23.103Z,25.26
2023-05-10T09:12:23.118Z,25.26
2023-05-10T09:13:23.103Z,25.24
2023-05-10T09:14:23.082Z,25.24
2023-05-10T09:15:23.248Z,25.25
2023-05-10T09:16:23.176Z,25.26
2023-05-10T09:17:23.147Z,25.28
2023-05-10T09:18:23.101Z,25.29
2023-05-10T09:19:23.083Z,25.30
2023-05-10T09:20:23.240Z,25.28
2023-05-10T09:21:23.143Z,25.28
2023-05-10T09:22:23.201Z,25.28
2023-05-10T09:23:23.221Z,25.29
2023-05-10T09:24:23.254Z,25.30
2023-05-10T09:25:23.754Z,25.31
2023-05-10T09:26:23.352Z,25.26
2023-05-10T09:27:23.323Z,25.24
2023-05-10T09:28:23.332Z,25.24
2023-05-10T09:29:23.286Z,25.20
2023-05-10T09:30:23.740Z,25.18
2023-05-10T09:31:23.567Z,25.11
2023-05-10T09:32:23.344Z,25.07
2023-05-10T09:33:23.296Z,25.04
2023-05-10T09:34:23.301Z,25.04
2023-05-10T09:35:23.293Z,25.03
2023-05-10T09:36:23.735Z,25.03
2023-05-10T09:37:23.316Z,25.02
2023-05-10T09:38:23.316Z,25.01
2023-05-10T09:39:23.316Z,25.01
2023-05-10T09:40:23.339Z,24.99
2023-05-10T09:41:23.337Z,25.00
2023-05-10T09:42:23.315Z,25.01
2023-05-10T09:43:23.344Z,25.00
2023-05-10T09:44:23.347Z,25.02
2023-05-10T09:45:23.758Z,25.03
2023-05-10T09:46:23.396Z,25.02
2023-05-10T09:47:23.436Z,25.03
2023-05-10T09:48:23.373Z,25.05
2023-05-10T09:49:23.357Z,25.06
2023-05-10T09:50:23.759Z,25.08
2023-05-10T09:51:23.362Z,25.10
2023-05-10T09:52:23.365Z,25.12
2023-05-10T09:53:23.357Z,25.12
2023-05-10T09:54:23.358Z,25.10
2023-05-10T09:55:23.391Z,25.11
2023-05-10T09:56:23.367Z,25.12
2023-05-10T09:57:23.343Z,25.12
2023-05-10T09:58:23.367Z,25.14
2023-05-10T09:59:23.348Z,25.14
2023-05-10T10:00:23.357Z,25.14
2023-05-10T10:01:23.412Z,25.13
2023-05-10T10:02:23.380Z,25.13
2023-05-10T10:03:23.376Z,25.15
2023-05-10T10:04:23.354Z,25.13
2023-05-10T10:05:23.333Z,25.13
2023-05-10T10:06:30.027Z,25.15
2023-05-10T10:07:24.349Z,25.14
2023-05-10T10:08:23.331Z,25.15
2023-05-10T10:09:23.312Z,25.12
2023-05-10T10:10:23.311Z,24.95
2023-05-10T10:11:23.310Z,24.74
2023-05-10T10:12:23.296Z,24.57
2023-05-10T10:13:23.293Z,24.42
2023-05-10T10:14:23.287Z,24.26
2023-05-10T10:15:23.514Z,24.13
2023-05-10T10:16:23.857Z,24.01
2023-05-10T10:17:23.314Z,23.91
2023-05-10T10:18:23.251Z,23.88
2023-05-10T10:19:23.244Z,23.92
2023-05-10T10:20:23.244Z,23.97
2023-05-10T10:21:23.281Z,24.07
2023-05-10T10:22:23.232Z,24.16
2023-05-10T10:23:23.273Z,24.21
2023-05-10T10:24:23.294Z,24.27
2023-05-10T10:25:23.388Z,24.27
2023-05-10T10:26:23.773Z,24.26
2023-05-10T10:27:23.490Z,24.17
2023-05-10T10:28:24.018Z,23.94
2023-05-10T10:29:23.558Z,23.90
2023-05-10T10:30:23.531Z,23.86
2023-05-10T10:31:23.617Z,23.87
2023-05-10T10:32:23.548Z,23.89
2023-05-10T10:33:28.479Z,23.91
2023-05-10T10:34:24.511Z,23.92
2023-05-10T10:35:23.521Z,23.95
2023-05-10T10:36:23.797Z,23.97
2023-05-10T10:37:23.503Z,23.97
2023-05-10T10:38:23.494Z,23.98
2023-05-10T10:39:23.489Z,23.97
2023-05-10T10:40:23.479Z,23.97
2023-05-10T10:41:23.474Z,23.98
2023-05-10T10:42:23.464Z,23.95
2023-05-10T10:43:23.447Z,23.92
2023-05-10T10:44:23.506Z,23.92
2023-05-10T10:45:23.435Z,23.85
2023-05-10T10:46:23.474Z,23.76
2023-05-10T10:47:23.466Z,23.72
2023-05-10T10:48:23.412Z,23.71
2023-05-10T10:49:23.443Z,23.71
2023-05-10T10:50:23.410Z,23.69
2023-05-10T10:51:23.424Z,23.68
2023-05-10T10:52:23.399Z,23.66
2023-05-10T10:53:23.447Z,23.69
2023-05-10T10:54:23.390Z,23.70
2023-05-10T10:55:23.396Z,23.68
2023-05-10T10:56:23.428Z,23.67
2023-05-10T10:57:23.427Z,23.67
2023-05-10T10:58:23.441Z,23.66
2023-05-10T10:59:23.431Z,23.65
2023-05-10T11:00:23.446Z,23.66
2023-05-10T11:01:23.517Z,23.69
2023-05-10T11:02:23.525Z,23.69
2023-05-10T11:03:23.486Z,23.71
2023-05-10T11:04:23.549Z,23.70
2023-05-10T11:05:23.505Z,23.67
2023-05-10T11:06:23.788Z,23.66
2023-05-10T11:07:23.524Z,23.62
2023-05-10T11:08:23.543Z,23.57
2023-05-10T11:09:23.555Z,23.49
2023-05-10T11:10:23.575Z,23.49
2023-05-10T11:11:23.596Z,23.49
2023-05-10T11:12:23.661Z,23.43
2023-05-10T11:13:23.633Z,23.31
2023-05-10T11:14:23.693Z,23.25
2023-05-10T11:15:23.695Z,23.22
2023-05-10T11:16:23.734Z,23.17
2023-05-10T11:17:23.857Z,23.17
2023-05-10T11:18:23.776Z,23.23
2023-05-10T11:19:23.798Z,23.25
2023-05-10T11:20:23.825Z,23.28
2023-05-10T11:21:23.855Z,23.34
2023-05-10T11:22:23.891Z,23.42
2023-05-10T11:23:23.909Z,23.49
2023-05-10T11:24:23.915Z,23.57
2023-05-10T11:25:23.935Z,23.64
2023-05-10T11:26:23.963Z,23.70
2023-05-10T11:27:23.948Z,23.74
2023-05-10T11:28:23.976Z,23.79
2023-05-10T11:29:23.980Z,23.80
2023-05-10T11:30:23.972Z,23.60
2023-05-10T11:31:24.054Z,23.35
2023-05-10T11:32:24.117Z,23.18
2023-05-10T11:33:24.082Z,23.05
2023-05-10T11:34:24.066Z,22.91
2023-05-10T11:35:24.118Z,22.72
2023-05-10T11:36:24.203Z,22.54
2023-05-10T11:37:24.233Z,22.38
2023-05-10T11:38:24.288Z,22.32
2023-05-10T11:39:24.330Z,22.37
2023-05-10T11:40:24.393Z,22.49
2023-05-10T11:41:24.460Z,22.61
2023-05-10T11:42:24.488Z,22.73
2023-05-10T11:43:24.556Z,22.84
2023-05-10T11:44:24.586Z,22.93
2023-05-10T11:45:24.645Z,23.02
2023-05-10T11:46:24.676Z,23.09
2023-05-10T11:47:24.679Z,23.16
2023-05-10T11:48:24.729Z,23.23
2023-05-10T11:49:24.720Z,23.29
2023-05-10T11:50:24.768Z,23.36
2023-05-10T11:51:24.780Z,23.42
2023-05-10T11:52:24.785Z,23.47
2023-05-10T11:53:25.935Z,23.52
2023-05-10T11:54:24.831Z,23.56
2023-05-10T11:55:24.829Z,23.60
2023-05-10T11:56:24.885Z,23.64
2023-05-10T11:57:24.848Z,23.68
2023-05-10T11:58:24.857Z,23.71
2023-05-10T11:59:24.850Z,23.74
2023-05-10T12:00:24.852Z,23.77
2023-05-10T12:01:24.844Z,23.80
2023-05-10T12:02:24.921Z,23.82
2023-05-10T12:03:24.942Z,23.84
2023-05-10T12:04:24.892Z,23.86
2023-05-10T12:05:24.865Z,23.89
2023-05-10T12:06:25.313Z,23.90
2023-05-10T12:07:24.896Z,23.92
2023-05-10T12:08:24.919Z,23.93
2023-05-10T12:09:39.448Z,23.95
2023-05-10T12:10:25.930Z,23.95
2023-05-10T12:11:25.311Z,23.97
2023-05-10T12:12:24.910Z,23.99
2023-05-10T12:13:24.912Z,23.99
2023-05-10T12:14:24.954Z,24.01
2023-05-10T12:15:24.880Z,24.02
2023-05-10T12:16:25.361Z,24.03
2023-05-10T12:17:24.882Z,24.04
2023-05-10T12:18:24.910Z,24.06
2023-05-10T12:19:24.931Z,24.06
2023-05-10T12:20:24.972Z,24.07
2023-05-10T12:21:25.037Z,24.07
2023-05-10T12:22:25.108Z,24.08
2023-05-10T12:23:25.144Z,24.08
2023-05-10T12:24:25.206Z,24.08
2023-05-10T12:25:25.273Z,24.09
2023-05-10T12:26:25.336Z,24.10
2023-05-10T12:27:25.405Z,24.09
2023-05-10T12:28:25.465Z,24.10
2023-05-10T12:29:25.531Z,24.11
2023-05-10T12:30:25.600Z,24.11
2023-05-10T12:31:25.778Z,24.11
2023-05-10T12:32:25.759Z,24.12
2023-05-10T12:33:25.793Z,24.12
2023-05-10T12:34:25.828Z,24.12
2023-05-10T12:35:25.892Z,24.13
2023-05-10T12:36:25.963Z,24.13
2023-05-10T12:37:26.017Z,24.13
2023-05-10T12:38:26.108Z,24.13
2023-05-10T12:39:26.143Z,24.14
2023-05-10T12:40:26.194Z,24.14
2023-05-10T12:41:26.311Z,24.14
2023-05-10T12:42:26.334Z,24.15
2023-05-10T12:43:26.405Z,24.15
2023-05-10T12:44:26.459Z,24.15
2023-05-10T12:45:26.516Z,24.15
2023-05-10T12:46:26.683Z,24.16
2023-05-10T12:47:26.718Z,24.17
2023-05-10T12:48:26.693Z,24.16
2023-05-10T12:49:26.731Z,24.17
2023-05-10T12:50:26.816Z,24.17
2023-05-10T12:51:26.865Z,24.17
2023-05-10T12:52:26.925Z,24.17
2023-05-10T12:53:27.017Z,24.18